Time;durP1;ratioP1;P1;durP2;ratioP2;P2;SDS_P1;SDS_P2;PMS_P1;PMS_P2;Temp;Humidity;BMP_temperature;BMP_pressure;BME280_temperature;BME280_humidity;BME280_pressure;Samples;Min_cycle;Max_cycle;Signal;HPM_P1;HPM_P2
2024/01/05 00:02:42;;;;;;;15.63;4.88;;;12.70;52.40;;;;;;6271160;28;20040;-76
2024/01/05 00:05:43;;;;;;;12.32;4.47;;;12.70;52.20;;;;;;6272600;28;20455;-75
2024/01/05 00:08:44;;;;;;;10.30;4.35;;;12.60;52.10;;;;;;6284008;28;20438;-75
2024/01/05 00:11:47;;;;;;;12.95;5.40;;;12.60;52.10;;;;;;6286315;28;20016;-75
2024/01/05 00:14:48;;;;;;;10.32;4.55;;;12.60;52.30;;;;;;6271967;28;20053;-76
2024/01/05 00:17:49;;;;;;;12.90;3.97;;;12.60;52.30;;;;;;6287015;28;20129;-75
2024/01/05 00:20:49;;;;;;;8.38;3.85;;;12.60;52.30;;;;;;6273107;28;20116;-77
2024/01/05 00:23:53;;;;;;;11.27;3.55;;;12.60;52.20;;;;;;6283737;28;20473;-75
2024/01/05 00:26:56;;;;;;;8.50;4.13;;;12.60;52.20;;;;;;6291025;28;20115;-76
2024/01/05 00:29:58;;;;;;;13.70;4.75;;;12.60;52.20;;;;;;6283637;28;20012;-76
2024/01/05 00:33:00;;;;;;;9.93;4.90;;;12.60;52.20;;;;;;6286442;28;20733;-77
2024/01/05 00:36:04;;;;;;;9.38;4.03;;;12.60;52.70;;;;;;6285338;28;20127;-76
2024/01/05 00:39:05;;;;;;;13.55;4.90;;;12.60;52.10;;;;;;6283974;28;20105;-75
2024/01/05 00:42:08;;;;;;;14.20;4.88;;;12.60;52.40;;;;;;6286396;28;20056;-74
2024/01/05 00:45:10;;;;;;;9.30;3.95;;;12.60;52.50;;;;;;6285623;28;20021;-75
2024/01/05 00:48:11;;;;;;;11.23;4.60;;;12.50;52.50;;;;;;6306298;28;20028;-74
2024/01/05 00:51:13;;;;;;;9.18;4.57;;;12.50;52.50;;;;;;6277493;28;20021;-75
2024/01/05 00:54:14;;;;;;;8.85;3.92;;;12.50;52.60;;;;;;6271124;28;20024;-76
2024/01/05 00:57:15;;;;;;;14.55;5.00;;;12.70;52.70;;;;;;6267133;28;20020;-76
2024/01/05 01:00:16;;;;;;;9.52;4.95;;;12.60;52.70;;;;;;6266162;28;20515;-74
2024/01/05 01:03:17;;;;;;;18.55;4.93;;;12.60;52.80;;;;;;6269148;28;20493;-76
2024/01/05 01:06:18;;;;;;;12.25;4.88;;;12.60;52.90;;;;;;6252289;28;20112;-74
2024/01/05 01:09:19;;;;;;;12.90;5.32;;;12.60;53.00;;;;;;6251370;28;20495;-75
2024/01/05 01:12:21;;;;;;;12.38;5.72;;;12.60;53.10;;;;;;6263522;28;20029;-75
2024/01/05 01:15:25;;;;;;;10.60;4.78;;;12.60;53.20;;;;;;6268621;28;20036;-75
2024/01/05 01:18:27;;;;;;;9.43;4.63;;;12.60;53.30;;;;;;6249364;28;20028;-75
2024/01/05 01:21:28;;;;;;;14.95;5.75;;;12.60;53.30;;;;;;6269540;28;20055;-75
2024/01/05 01:24:29;;;;;;;9.07;3.88;;;12.50;53.40;;;;;;6260647;28;20396;-76
2024/01/05 01:27:30;;;;;;;10.93;4.80;;;12.50;53.40;;;;;;6267670;28;20531;-75
2024/01/05 01:30:32;;;;;;;9.30;4.57;;;12.50;53.40;;;;;;6263244;28;20321;-76
2024/01/05 01:33:32;;;;;;;10.77;4.47;;;12.50;53.40;;;;;;6271871;28;20108;-74
2024/01/05 01:36:35;;;;;;;11.18;4.00;;;12.50;53.30;;;;;;6267338;28;20036;-74
2024/01/05 01:39:36;;;;;;;15.32;4.70;;;12.60;53.30;;;;;;6254067;28;20504;-75
2024/01/05 01:42:37;;;;;;;8.80;3.90;;;12.60;53.20;;;;;;6264851;28;20040;-75
2024/01/05 01:45:38;;;;;;;9.82;4.03;;;12.60;53.20;;;;;;6266969;28;20023;-74
2024/01/05 01:48:42;;;;;;;9.20;3.85;;;12.60;53.00;;;;;;6258388;28;20155;-75
2024/01/05 01:51:43;;;;;;;7.85;3.40;;;12.60;53.00;;;;;;6271686;28;20032;-74
2024/01/05 01:54:44;;;;;;;11.95;4.28;;;12.70;53.00;;;;;;6257112;28;20016;-77
2024/01/05 01:57:46;;;;;;;9.77;3.55;;;12.60;52.90;;;;;;6272778;28;20017;-75
2024/01/05 02:00:51;;;;;;;8.85;3.03;;;12.60;53.10;;;;;;6275119;28;20028;-74
2024/01/05 02:03:52;;;;;;;5.15;3.05;;;12.60;53.00;;;;;;6269933;28;20131;-77
2024/01/05 02:06:56;;;;;;;8.25;3.30;;;12.60;53.00;;;;;;6261097;28;20017;-75
2024/01/05 02:09:58;;;;;;;5.65;2.78;;;12.70;52.90;;;;;;6252693;28;20045;-76
2024/01/05 02:13:00;;;;;;;9.68;4.05;;;12.70;52.90;;;;;;6250997;28;20365;-76
2024/01/05 02:16:01;;;;;;;9.38;3.85;;;12.70;52.90;;;;;;6267399;28;20025;-76
2024/01/05 02:19:13;;;;;;;7.90;3.40;;;12.70;52.90;;;;;;6276680;28;20038;-76
2024/01/05 02:22:14;;;;;;;10.27;3.78;;;12.60;52.90;;;;;;6270670;28;20057;-76
2024/01/05 02:25:16;;;;;;;11.52;4.05;;;12.60;53.20;;;;;;6265397;28;20032;-74
2024/01/05 02:28:19;;;;;;;8.93;4.13;;;12.50;53.40;;;;;;6265970;28;20373;-75
2024/01/05 02:31:20;;;;;;;11.80;3.83;;;12.40;53.60;;;;;;6249198;28;20392;-75
2024/01/05 02:34:21;;;;;;;6.85;3.25;;;12.40;53.90;;;;;;6268261;28;20032;-75
2024/01/05 02:37:22;;;;;;;9.27;3.78;;;12.40;54.30;;;;;;6261875;28;20067;-76
2024/01/05 02:40:23;;;;;;;6.28;3.45;;;12.30;54.40;;;;;;6271261;28;20477;-75
2024/01/05 02:43:24;;;;;;;8.02;3.20;;;12.30;54.50;;;;;;6249481;28;20047;-74
2024/01/05 02:46:26;;;;;;;16.27;4.13;;;12.40;54.60;;;;;;6272560;28;20017;-74
2024/01/05 02:49:28;;;;;;;11.40;4.05;;;12.40;54.60;;;;;;6257296;28;20023;-75
2024/01/05 02:52:29;;;;;;;8.07;4.18;;;12.40;55.10;;;;;;6272280;28;20447;-75
2024/01/05 02:55:29;;;;;;;18.98;4.40;;;12.40;54.40;;;;;;6264013;28;20020;-74
2024/01/05 02:58:30;;;;;;;8.95;3.33;;;12.40;54.50;;;;;;6278091;28;20354;-73
2024/01/05 03:01:34;;;;;;;8.40;4.03;;;12.40;54.60;;;;;;6270217;28;20025;-76
2024/01/05 03:04:35;;;;;;;12.93;4.28;;;12.40;54.90;;;;;;6266193;28;20439;-75
2024/01/05 03:07:36;;;;;;;7.30;3.63;;;12.40;55.00;;;;;;6261552;28;20021;-75
2024/01/05 03:10:38;;;;;;;8.48;3.88;;;12.30;55.00;;;;;;6260261;28;20499;-74
2024/01/05 03:13:41;;;;;;;9.48;3.80;;;12.40;55.10;;;;;;6260708;28;20071;-74
2024/01/05 03:16:42;;;;;;;13.00;4.20;;;12.40;55.30;;;;;;6264253;28;20083;-75
2024/01/05 03:19:43;;;;;;;9.95;4.18;;;12.40;55.40;;;;;;6261501;28;20480;-77
2024/01/05 03:22:44;;;;;;;8.48;3.88;;;12.40;55.50;;;;;;6277448;28;20035;-75
2024/01/05 03:25:46;;;;;;;6.93;3.50;;;12.40;55.50;;;;;;6268669;28;20063;-73
2024/01/05 03:28:47;;;;;;;8.48;4.25;;;12.40;55.40;;;;;;6301577;28;20115;-76
2024/01/05 03:31:48;;;;;;;9.35;4.22;;;12.40;55.20;;;;;;6242712;28;20032;-74
2024/01/05 03:34:49;;;;;;;9.13;3.95;;;12.40;55.10;;;;;;6274884;28;20037;-76
2024/01/05 03:37:51;;;;;;;9.82;4.53;;;12.40;55.20;;;;;;6243751;28;20045;-75
2024/01/05 03:40:51;;;;;;;10.07;4.20;;;12.30;55.10;;;;;;6260170;28;20365;-75
2024/01/05 03:43:52;;;;;;;13.98;4.15;;;12.30;55.10;;;;;;6259097;28;20040;-75
2024/01/05 03:46:53;;;;;;;9.40;4.22;;;12.20;55.20;;;;;;6267847;28;20025;-74
2024/01/05 03:49:56;;;;;;;13.68;4.63;;;12.20;55.40;;;;;;6267288;28;20043;-74
2024/01/05 03:52:56;;;;;;;18.67;5.30;;;12.20;55.50;;;;;;6262368;28;20048;-74
2024/01/05 03:55:58;;;;;;;9.73;4.63;;;12.10;55.60;;;;;;6269504;28;20361;-73
2024/01/05 03:59:00;;;;;;;9.00;4.82;;;12.00;55.90;;;;;;6266397;28;20028;-72
2024/01/05 04:02:01;;;;;;;11.77;5.07;;;12.00;56.40;;;;;;6260814;28;20121;-74
2024/01/05 04:05:02;;;;;;;12.30;4.72;;;11.90;56.80;;;;;;6246152;28;20025;-73
2024/01/05 04:08:03;;;;;;;15.50;5.13;;;11.80;57.60;;;;;;6294651;28;20055;-73
2024/01/05 04:11:04;;;;;;;16.75;4.70;;;11.70;58.00;;;;;;6260213;28;20091;-72
2024/01/05 04:14:05;;;;;;;10.02;4.45;;;11.50;58.30;;;;;;6262071;28;20050;-74
2024/01/05 04:17:06;;;;;;;8.63;4.15;;;11.40;58.70;;;;;;6282884;28;20181;-74
2024/01/05 04:20:08;;;;;;;13.50;4.65;;;11.30;59.10;;;;;;6266692;28;20731;-74
2024/01/05 04:23:09;;;;;;;11.98;4.82;;;11.20;59.20;;;;;;6261909;28;20029;-75
2024/01/05 04:26:10;;;;;;;11.32;3.95;;;11.20;59.30;;;;;;6260487;28;20433;-72
2024/01/05 04:29:11;;;;;;;9.05;4.50;;;11.20;59.40;;;;;;6262336;28;20018;-75
2024/01/05 04:32:12;;;;;;;11.57;4.93;;;11.10;59.50;;;;;;6247515;28;20642;-75
2024/01/05 04:35:15;;;;;;;22.17;6.05;;;11.20;59.70;;;;;;6253308;28;20472;-74
2024/01/05 04:38:16;;;;;;;11.82;4.40;;;11.20;59.70;;;;;;6264998;28;20359;-76
2024/01/05 04:41:18;;;;;;;14.30;5.07;;;11.20;59.60;;;;;;6251741;28;20104;-76
2024/01/05 04:44:19;;;;;;;11.55;4.55;;;11.20;59.60;;;;;;6264354;28;20040;-75
2024/01/05 04:47:21;;;;;;;10.52;4.28;;;11.20;59.60;;;;;;6250632;28;20051;-75
2024/01/05 04:50:22;;;;;;;11.25;4.68;;;11.20;59.60;;;;;;6262830;28;20468;-74
2024/01/05 04:53:23;;;;;;;9.40;3.97;;;11.20;59.80;;;;;;6266804;28;20029;-74
2024/01/05 04:56:24;;;;;;;8.48;4.65;;;11.20;59.90;;;;;;6262017;28;20022;-75
2024/01/05 04:59:26;;;;;;;13.15;4.47;;;11.20;60.00;;;;;;6265698;28;20091;-73
2024/01/05 05:02:27;;;;;;;11.70;3.97;;;11.10;60.00;;;;;;6266837;28;20087;-73
2024/01/05 05:05:28;;;;;;;7.35;4.25;;;11.20;60.10;;;;;;6267619;28;20554;-77
2024/01/05 05:08:30;;;;;;;9.55;4.93;;;11.10;60.20;;;;;;6268801;28;20009;-75
2024/01/05 05:11:31;;;;;;;10.20;4.05;;;11.20;60.30;;;;;;6270401;28;20199;-75
2024/01/05 05:14:32;;;;;;;6.78;3.58;;;11.10;60.20;;;;;;6263956;28;20124;-75
2024/01/05 05:17:33;;;;;;;8.77;3.40;;;11.20;60.60;;;;;;6268561;28;20766;-75
2024/01/05 05:20:33;;;;;;;9.70;3.80;;;11.10;60.40;;;;;;6251143;28;20033;-73
2024/01/05 05:23:37;;;;;;;7.13;3.63;;;11.10;60.40;;;;;;6267002;28;20029;-74
2024/01/05 05:26:39;;;;;;;8.45;3.75;;;11.30;60.90;;;;;;6262470;28;20031;-74
2024/01/05 05:29:40;;;;;;;11.90;5.03;;;11.10;60.90;;;;;;6263806;28;20017;-74
2024/01/05 05:32:41;;;;;;;5.30;3.15;;;11.00;61.20;;;;;;6265600;28;20112;-73
2024/01/05 05:35:42;;;;;;;8.85;4.30;;;11.00;61.70;;;;;;6270372;28;20013;-74
2024/01/05 05:38:42;;;;;;;11.40;3.67;;;11.00;62.10;;;;;;6262276;28;20052;-74
2024/01/05 05:41:43;;;;;;;11.35;3.90;;;10.90;62.20;;;;;;6268888;28;20089;-75
2024/01/05 05:44:44;;;;;;;10.05;4.20;;;10.80;62.30;;;;;;6255744;28;20036;-74
2024/01/05 05:47:45;;;;;;;9.10;4.65;;;10.90;62.50;;;;;;6267742;28;20066;-74
2024/01/05 05:50:47;;;;;;;13.10;4.22;;;10.90;62.60;;;;;;6263983;28;20025;-73
2024/01/05 05:53:48;;;;;;;7.47;4.28;;;10.90;62.60;;;;;;6264050;28;20425;-75
2024/01/05 05:56:49;;;;;;;8.20;3.45;;;10.90;62.90;;;;;;6261144;28;20036;-75
2024/01/05 05:59:51;;;;;;;12.32;5.05;;;10.90;63.20;;;;;;6260397;28;20488;-74
2024/01/05 06:02:52;;;;;;;7.40;3.95;;;10.90;63.40;;;;;;6262412;28;20033;-75
2024/01/05 06:05:52;;;;;;;9.07;3.65;;;11.00;63.80;;;;;;6268320;28;20469;-74
2024/01/05 06:08:54;;;;;;;7.07;2.92;;;10.80;64.00;;;;;;6263976;28;20032;-72
2024/01/05 06:11:55;;;;;;;8.48;3.33;;;10.80;64.20;;;;;;6266851;28;20082;-74
2024/01/05 06:14:56;;;;;;;10.20;4.13;;;10.80;64.50;;;;;;6267019;28;20020;-75
2024/01/05 06:17:58;;;;;;;7.47;4.10;;;10.80;64.40;;;;;;6261248;28;20175;-74
2024/01/05 06:20:59;;;;;;;13.25;4.45;;;10.80;64.40;;;;;;6258714;28;20142;-77
2024/01/05 06:24:00;;;;;;;6.55;2.88;;;10.80;64.40;;;;;;6265559;28;20138;-74
2024/01/05 06:27:03;;;;;;;5.70;2.85;;;10.80;64.50;;;;;;6266801;28;20032;-74
2024/01/05 06:30:04;;;;;;;6.00;3.17;;;10.70;64.50;;;;;;6261486;28;20032;-74
2024/01/05 06:33:06;;;;;;;6.57;3.10;;;10.70;64.80;;;;;;6262095;28;20108;-74
2024/01/05 06:36:09;;;;;;;6.95;3.22;;;10.70;64.80;;;;;;6266460;28;20029;-74
2024/01/05 06:39:11;;;;;;;6.15;3.03;;;10.70;64.90;;;;;;6256243;28;20041;-75
2024/01/05 06:42:13;;;;;;;5.38;2.92;;;10.60;65.00;;;;;;6266085;28;20033;-76
2024/01/05 06:45:14;;;;;;;8.77;4.65;;;10.60;65.20;;;;;;6267970;28;20103;-73
2024/01/05 06:48:15;;;;;;;7.47;3.55;;;10.60;65.40;;;;;;6263067;28;20017;-74
2024/01/05 06:51:16;;;;;;;10.05;4.00;;;10.70;65.50;;;;;;6255386;28;20044;-75
2024/01/05 06:54:18;;;;;;;10.65;3.78;;;10.70;65.40;;;;;;6246522;28;20036;-74
2024/01/05 06:57:19;;;;;;;10.02;3.35;;;10.70;65.40;;;;;;6269568;28;20118;-74
2024/01/05 07:00:20;;;;;;;6.20;3.72;;;10.80;65.30;;;;;;6263047;28;20103;-73
2024/01/05 07:03:21;;;;;;;11.98;4.05;;;10.80;65.30;;;;;;6248723;28;20497;-75
2024/01/05 07:06:21;;;;;;;5.90;3.08;;;10.80;65.30;;;;;;6249657;28;20017;-75
2024/01/05 07:09:23;;;;;;;8.98;3.65;;;10.90;65.40;;;;;;6264522;28;20048;-74
2024/01/05 07:12:27;;;;;;;14.20;3.60;;;10.90;65.50;;;;;;6266151;28;20111;-74
2024/01/05 07:15:29;;;;;;;14.95;4.13;;;10.90;65.60;;;;;;6264170;28;20080;-76
2024/01/05 07:18:29;;;;;;;8.30;3.25;;;10.90;65.50;;;;;;6269858;28;20103;-74
2024/01/05 07:21:30;;;;;;;9.10;4.50;;;11.00;65.60;;;;;;6263307;28;20023;-73
2024/01/05 07:24:33;;;;;;;9.70;4.18;;;11.00;65.60;;;;;;6266106;28;20025;-74
2024/01/05 07:27:34;;;;;;;8.75;3.70;;;11.00;65.70;;;;;;6266761;28;20021;-74
2024/01/05 07:30:35;;;;;;;7.72;3.53;;;11.10;65.70;;;;;;6265360;28;20039;-73
2024/01/05 07:33:39;;;;;;;7.03;3.35;;;11.10;65.80;;;;;;6249897;28;20058;-70
2024/01/05 07:36:43;;;;;;;7.00;3.42;;;11.10;65.80;;;;;;6269391;28;20036;-73
2024/01/05 07:39:44;;;;;;;13.63;5.00;;;11.10;66.60;;;;;;6243631;28;20029;-75
2024/01/05 07:42:45;;;;;;;8.90;4.65;;;11.10;65.90;;;;;;6273842;28;20037;-73
2024/01/05 07:45:46;;;;;;;9.70;3.75;;;11.30;66.10;;;;;;6266909;28;20107;-71
2024/01/05 07:48:47;;;;;;;7.88;4.20;;;11.20;66.00;;;;;;6266065;28;20123;-75
2024/01/05 07:51:48;;;;;;;11.13;3.65;;;11.10;66.00;;;;;;6260175;28;20021;-74
2024/01/05 07:54:49;;;;;;;13.75;4.38;;;11.10;66.20;;;;;;6242619;28;20036;-75
2024/01/05 07:57:49;;;;;;;8.05;4.40;;;11.10;66.30;;;;;;6267136;28;20125;-73
2024/01/05 08:00:51;;;;;;;7.60;2.88;;;11.10;66.40;;;;;;6262777;28;20472;-74
2024/01/05 08:03:52;;;;;;;8.80;4.22;;;11.10;66.40;;;;;;6280501;28;20037;-75
2024/01/05 08:06:52;;;;;;;10.75;3.53;;;11.20;66.50;;;;;;6268413;28;20021;-74
2024/01/05 08:09:53;;;;;;;5.18;2.90;;;11.20;66.40;;;;;;6265452;28;20118;-74
2024/01/05 08:12:54;;;;;;;8.35;3.92;;;11.20;66.50;;;;;;6266523;28;20028;-74
2024/01/05 08:15:55;;;;;;;9.27;3.72;;;11.10;66.60;;;;;;6267057;28;20175;-73
2024/01/05 08:18:55;;;;;;;7.82;4.15;;;11.10;66.80;;;;;;6266224;28;20033;-75
2024/01/05 08:21:56;;;;;;;9.73;4.65;;;11.10;66.90;;;;;;6266186;28;20748;-73
2024/01/05 08:24:57;;;;;;;11.05;4.95;;;11.10;67.10;;;;;;6256296;28;20411;-74
2024/01/05 08:27:58;;;;;;;9.15;3.50;;;11.10;67.20;;;;;;6252485;28;20040;-72
2024/01/05 08:31:00;;;;;;;17.45;4.97;;;11.00;67.30;;;;;;6252626;28;20018;-74
2024/01/05 08:34:00;;;;;;;16.95;5.82;;;11.00;67.60;;;;;;6242240;28;20106;-73
2024/01/05 08:37:01;;;;;;;9.05;3.50;;;11.00;67.80;;;;;;6267889;28;20025;-74
2024/01/05 08:40:03;;;;;;;7.57;3.05;;;11.10;68.00;;;;;;6271982;28;20098;-76
2024/01/05 08:43:03;;;;;;;6.70;2.65;;;11.10;67.90;;;;;;6265533;28;20355;-74
2024/01/05 08:46:04;;;;;;;9.10;2.42;;;11.20;67.80;;;;;;6267504;28;20127;-76
2024/01/05 08:49:05;;;;;;;5.90;2.95;;;11.20;67.80;;;;;;6265327;28;20125;-73
2024/01/05 08:52:06;;;;;;;4.72;3.17;;;11.20;67.80;;;;;;6244291;28;20085;-75
2024/01/05 08:55:07;;;;;;;7.40;2.67;;;11.20;67.60;;;;;;6258402;28;20457;-75
2024/01/05 08:58:10;;;;;;;5.05;2.50;;;11.30;67.70;;;;;;6262035;28;20049;-74
2024/01/05 09:01:11;;;;;;;9.32;3.05;;;11.40;67.60;;;;;;6260561;28;20025;-76
2024/01/05 09:04:12;;;;;;;5.63;2.28;;;11.40;67.50;;;;;;6264438;28;20170;-75
2024/01/05 09:07:13;;;;;;;6.80;3.08;;;11.40;67.50;;;;;;6263920;28;20114;-75
2024/01/05 09:10:15;;;;;;;4.70;2.53;;;11.40;67.30;;;;;;6267316;28;20094;-75
2024/01/05 09:13:15;;;;;;;6.45;2.40;;;11.40;67.30;;;;;;6250607;28;20013;-75
2024/01/05 09:16:18;;;;;;;7.40;3.65;;;11.40;67.20;;;;;;6262982;28;20086;-72
2024/01/05 09:19:20;;;;;;;6.72;3.50;;;11.40;67.10;;;;;;6250659;28;20013;-74
2024/01/05 09:22:20;;;;;;;14.20;3.80;;;11.50;67.40;;;;;;6263900;28;20695;-74
2024/01/05 09:25:22;;;;;;;14.15;4.43;;;11.50;67.40;;;;;;6262699;28;20043;-75
2024/01/05 09:28:23;;;;;;;4.70;3.03;;;11.60;67.20;;;;;;6261493;28;20115;-75
2024/01/05 09:31:25;;;;;;;8.50;2.85;;;11.70;67.10;;;;;;6264197;28;20198;-74
2024/01/05 09:34:25;;;;;;;5.70;3.10;;;11.70;66.70;;;;;;6263802;28;20032;-76
2024/01/05 09:37:26;;;;;;;8.07;3.63;;;11.70;66.50;;;;;;6261791;28;20590;-75
2024/01/05 09:40:28;;;;;;;10.00;3.70;;;11.70;66.60;;;;;;6257674;28;20126;-74
2024/01/05 09:43:29;;;;;;;7.88;3.88;;;11.70;66.70;;;;;;6246682;28;20261;-76
2024/01/05 09:46:30;;;;;;;9.57;3.40;;;11.80;66.70;;;;;;6263542;28;20028;-75
2024/01/05 09:49:35;;;;;;;8.90;3.00;;;11.80;66.60;;;;;;6269883;28;20066;-75
2024/01/05 09:52:36;;;;;;;14.45;4.97;;;11.80;66.60;;;;;;6281425;28;20028;-75
2024/01/05 09:55:37;;;;;;;8.27;3.58;;;11.80;66.50;;;;;;6264215;28;20385;-74
2024/01/05 09:58:38;;;;;;;5.57;2.95;;;11.80;66.50;;;;;;6266699;28;20031;-75
2024/01/05 10:01:41;;;;;;;8.60;3.58;;;11.80;66.60;;;;;;6262475;28;20036;-75
2024/01/05 10:04:42;;;;;;;8.20;3.35;;;11.80;66.50;;;;;;6264304;28;20117;-74
2024/01/05 10:07:44;;;;;;;7.28;3.58;;;11.80;66.40;;;;;;6252080;28;20118;-76
2024/01/05 10:10:56;;;;;;;7.90;4.10;;;11.90;66.30;;;;;;6259863;28;20513;-75
2024/01/05 10:14:02;;;;;;;9.52;4.95;;;11.90;66.20;;;;;;6246475;28;20727;-75
2024/01/05 10:17:09;;;;;;;7.53;4.40;;;11.90;66.30;;;;;;6246763;28;20536;-74
2024/01/05 10:20:14;;;;;;;10.40;3.85;;;11.90;66.30;;;;;;6257106;28;20055;-76
2024/01/05 10:23:17;;;;;;;6.72;3.20;;;11.90;66.40;;;;;;6267837;28;20103;-73
2024/01/05 10:26:21;;;;;;;7.05;3.65;;;11.90;66.30;;;;;;6279709;28;20016;-74
2024/01/05 10:29:24;;;;;;;8.27;3.22;;;11.90;66.30;;;;;;6266676;28;20017;-75
2024/01/05 10:32:25;;;;;;;5.30;2.10;;;11.90;66.40;;;;;;6260272;28;20029;-74
2024/01/05 10:35:29;;;;;;;6.35;2.45;;;11.90;66.30;;;;;;6299470;28;20024;-74
2024/01/05 10:38:32;;;;;;;6.03;2.95;;;11.90;66.40;;;;;;6269142;28;20094;-71
2024/01/05 10:41:33;;;;;;;8.95;3.08;;;11.90;66.40;;;;;;6265810;28;20025;-72
2024/01/05 10:44:34;;;;;;;5.97;2.28;;;11.90;66.30;;;;;;6265889;28;20044;-72
2024/01/05 10:47:38;;;;;;;5.60;2.95;;;11.90;66.30;;;;;;6295565;28;20096;-75
2024/01/05 10:50:43;;;;;;;9.48;2.55;;;11.90;66.30;;;;;;6246004;28;20574;-74
2024/01/05 10:53:46;;;;;;;12.90;4.93;;;11.80;66.20;;;;;;6262762;28;20016;-76
2024/01/05 10:56:53;;;;;;;12.98;5.05;;;11.80;66.40;;;;;;6244819;28;20079;-75
2024/01/05 10:59:54;;;;;;;6.85;2.92;;;11.80;66.50;;;;;;6280788;28;20455;-75
2024/01/05 11:03:13;;;;;;;6.57;2.30;;;11.80;66.40;;;;;;6265976;28;20029;-76
2024/01/05 11:06:15;;;;;;;2.95;2.00;;;11.80;66.40;;;;;;6263469;28;20108;-74
2024/01/05 11:09:31;;;;;;;4.75;2.15;;;11.80;66.40;;;;;;6260040;28;20024;-74
2024/01/05 11:12:53;;;;;;;4.05;1.88;;;11.70;66.40;;;;;;6263253;28;20107;-76
2024/01/05 11:16:26;;;;;;;8.05;2.67;;;11.80;66.40;;;;;;6267269;28;20013;-75
2024/01/05 11:19:45;;;;;;;6.97;2.97;;;11.80;66.50;;;;;;6219039;28;20025;-75
2024/01/05 11:22:48;;;;;;;3.15;1.55;;;11.80;66.50;;;;;;6220436;28;20041;-76
2024/01/05 11:25:49;;;;;;;3.78;1.45;;;11.80;66.50;;;;;;6231668;28;20025;-75
2024/01/05 11:28:50;;;;;;;4.60;1.70;;;11.80;66.50;;;;;;6216834;28;20081;-75
2024/01/05 11:31:52;;;;;;;12.70;4.32;;;11.80;66.40;;;;;;6218508;28;20072;-75
2024/01/05 11:34:54;;;;;;;15.75;6.72;;;11.70;66.30;;;;;;6216629;28;20109;-75
2024/01/05 11:37:55;;;;;;;23.55;4.75;;;11.70;66.30;;;;;;6231040;28;20124;-76
2024/01/05 11:40:56;;;;;;;7.00;3.28;;;11.70;66.40;;;;;;6222711;28;20692;-76
2024/01/05 11:43:57;;;;;;;7.95;2.03;;;11.70;66.50;;;;;;6232085;28;20117;-74
2024/01/05 11:46:59;;;;;;;6.82;2.83;;;11.70;66.60;;;;;;6223551;28;20022;-77
2024/01/05 11:50:26;;;;;;;9.05;3.08;;;11.70;66.60;;;;;;6235983;28;20021;-76
2024/01/05 11:53:29;;;;;;;6.45;2.28;;;11.80;66.50;;;;;;6237780;28;20017;-75
2024/01/05 11:56:30;;;;;;;9.23;2.72;;;11.80;66.40;;;;;;6262073;28;20069;-76
2024/01/05 11:59:30;;;;;;;9.48;3.10;;;11.90;66.20;;;;;;6262407;28;20049;-75
2024/01/05 12:02:31;;;;;;;5.88;1.70;;;11.90;66.10;;;;;;6263415;28;20044;-76
2024/01/05 12:05:32;;;;;;;5.65;1.83;;;11.90;65.80;;;;;;6260375;28;20462;-75
2024/01/05 12:08:33;;;;;;;9.48;1.85;;;11.90;65.50;;;;;;6248066;28;20354;-75
2024/01/05 12:11:34;;;;;;;5.70;1.90;;;11.90;65.60;;;;;;6245905;28;20114;-77
2024/01/05 12:14:37;;;;;;;5.15;2.70;;;11.90;65.60;;;;;;6284473;28;20070;-75
2024/01/05 12:17:39;;;;;;;5.88;2.67;;;11.90;65.60;;;;;;6247436;28;20044;-75
2024/01/05 12:20:39;;;;;;;4.00;2.58;;;11.90;65.50;;;;;;6282231;28;20012;-75
2024/01/05 12:23:50;;;;;;;9.52;2.17;;;12.00;65.60;;;;;;6272774;28;20501;-78
2024/01/05 12:26:52;;;;;;;5.68;1.58;;;12.00;65.60;;;;;;6265018;28;20183;-75
2024/01/05 12:29:53;;;;;;;9.68;3.38;;;12.00;65.20;;;;;;6252064;28;20021;-76
2024/01/05 12:32:55;;;;;;;5.20;2.05;;;12.00;65.30;;;;;;6246075;28;20570;-76
2024/01/05 12:35:56;;;;;;;12.30;2.22;;;12.00;65.40;;;;;;6238475;28;20016;-76
2024/01/05 12:39:10;;;;;;;6.00;2.60;;;12.00;65.40;;;;;;6265438;28;20013;-75
2024/01/05 12:42:11;;;;;;;14.50;2.80;;;12.00;65.20;;;;;;6265523;28;20035;-78
2024/01/05 12:45:12;;;;;;;7.07;2.90;;;12.10;65.40;;;;;;6267311;28;20114;-74
2024/01/05 12:48:13;;;;;;;8.57;2.45;;;12.10;65.30;;;;;;6258040;28;20338;-75
2024/01/05 12:51:22;;;;;;;5.15;2.75;;;12.10;65.20;;;;;;6253581;28;20032;-75
2024/01/05 12:54:22;;;;;;;;;;;12.10;65.10;;;;;;6253014;28;20052;-73
2024/01/05 12:57:25;;;;;;;10.20;2.72;;;12.10;65.00;;;;;;6265445;28;20385;-75
2024/01/05 13:00:26;;;;;;;8.25;2.47;;;12.20;64.70;;;;;;6246598;28;20115;-76
2024/01/05 13:03:28;;;;;;;2.53;1.52;;;12.20;64.70;;;;;;6255992;28;20029;-77
2024/01/05 13:06:30;;;;;;;8.52;3.70;;;12.20;64.60;;;;;;6264832;28;20468;-75
2024/01/05 13:09:32;;;;;;;6.45;2.75;;;12.20;64.70;;;;;;6266288;28;20028;-75
2024/01/05 13:12:33;;;;;;;3.45;1.20;;;12.30;64.60;;;;;;6250304;28;20087;-74
2024/01/05 13:15:34;;;;;;;3.53;1.05;;;12.20;64.40;;;;;;6250083;28;20052;-76
2024/01/05 13:18:36;;;;;;;2.25;1.35;;;12.10;64.10;;;;;;6270846;28;20028;-75
2024/01/05 13:21:38;;;;;;;14.00;3.22;;;12.10;64.10;;;;;;6265949;28;20017;-76
2024/01/05 13:24:38;;;;;;;3.22;1.02;;;12.00;64.40;;;;;;6273000;28;20033;-75
2024/01/05 13:27:40;;;;;;;2.22;1.40;;;12.00;64.50;;;;;;6252394;28;20123;-74
2024/01/05 13:30:41;;;;;;;1.77;1.00;;;12.00;64.60;;;;;;6260818;28;20044;-73
2024/01/05 13:33:43;;;;;;;2.83;1.23;;;12.00;64.50;;;;;;6261373;28;20024;-75
2024/01/05 13:36:44;;;;;;;4.22;1.30;;;11.90;64.60;;;;;;6260858;28;20032;-76
2024/01/05 13:39:45;;;;;;;5.68;2.58;;;11.90;64.70;;;;;;6253198;28;20032;-73
2024/01/05 13:42:47;;;;;;;8.88;3.85;;;11.90;64.60;;;;;;6268975;28;20028;-75
2024/01/05 13:45:48;;;;;;;2.95;1.65;;;11.90;64.60;;;;;;6251983;28;20414;-75
2024/01/05 13:48:49;;;;;;;8.25;3.53;;;11.90;64.60;;;;;;6271918;28;20134;-75
2024/01/05 13:51:51;;;;;;;8.65;3.55;;;11.90;64.60;;;;;;6265785;28;20445;-75
2024/01/05 13:54:53;;;;;;;7.80;2.08;;;11.90;64.30;;;;;;6268645;28;20083;-76
2024/01/05 13:57:54;;;;;;;6.53;2.03;;;11.90;64.40;;;;;;6264801;28;20063;-76
2024/01/05 14:00:58;;;;;;;5.78;2.70;;;11.80;64.40;;;;;;6269552;28;20184;-77
2024/01/05 14:03:59;;;;;;;3.85;1.95;;;11.70;64.70;;;;;;6270579;28;20040;-75
2024/01/05 14:07:01;;;;;;;6.75;2.38;;;11.70;64.90;;;;;;6265578;28;20016;-76
2024/01/05 14:10:03;;;;;;;9.20;2.85;;;11.70;64.90;;;;;;6259731;28;20056;-75
2024/01/05 14:13:03;;;;;;;2.67;1.48;;;11.60;64.80;;;;;;6249813;28;20043;-75
2024/01/05 14:16:09;;;;;;;8.90;2.40;;;11.60;64.90;;;;;;6269858;28;20060;-76
2024/01/05 14:19:11;;;;;;;6.25;2.70;;;11.60;64.90;;;;;;6266986;28;20125;-76
2024/01/05 14:22:12;;;;;;;4.28;1.67;;;11.70;64.90;;;;;;6247419;28;20616;-75
2024/01/05 14:25:13;;;;;;;3.00;1.70;;;11.70;64.90;;;;;;6271657;28;20472;-76
2024/01/05 14:28:14;;;;;;;2.92;1.35;;;11.70;64.90;;;;;;6250027;28;20039;-74
2024/01/05 14:31:27;;;;;;;1.92;0.95;;;11.70;64.80;;;;;;6261999;28;20067;-74
2024/01/05 14:34:28;;;;;;;2.75;1.00;;;11.70;64.70;;;;;;6274248;28;20409;-75
2024/01/05 14:37:29;;;;;;;5.90;1.38;;;11.70;64.70;;;;;;6267152;28;20117;-75
2024/01/05 14:40:30;;;;;;;3.38;1.17;;;11.70;64.70;;;;;;6269726;28;20032;-76
2024/01/05 14:43:34;;;;;;;4.05;1.77;;;11.70;64.70;;;;;;6243664;28;20041;-76
2024/01/05 14:46:35;;;;;;;1.65;1.00;;;11.60;64.70;;;;;;6261501;28;20032;-74
2024/01/05 14:49:37;;;;;;;3.15;1.70;;;11.60;64.70;;;;;;6260672;28;20077;-75
2024/01/05 14:52:38;;;;;;;2.30;1.60;;;11.60;64.80;;;;;;6262351;28;20448;-74
2024/01/05 14:55:39;;;;;;;3.47;1.90;;;11.60;64.90;;;;;;6263638;28;20066;-77
2024/01/05 14:58:43;;;;;;;3.97;1.40;;;11.60;64.90;;;;;;6265910;28;20477;-78
2024/01/05 15:01:43;;;;;;;6.55;2.40;;;11.60;65.00;;;;;;6300186;28;20044;-79
2024/01/05 15:04:45;;;;;;;4.85;2.08;;;11.40;65.00;;;;;;6251961;28;20052;-78
2024/01/05 15:07:46;;;;;;;6.65;1.67;;;11.50;65.10;;;;;;6262463;28;20028;-79
2024/01/05 15:10:49;;;;;;;2.30;1.60;;;11.40;65.20;;;;;;6270173;28;20028;-81
2024/01/05 15:13:49;;;;;;;4.15;1.70;;;11.40;65.50;;;;;;6265121;28;20036;-80
2024/01/05 15:16:50;;;;;;;4.70;1.42;;;11.40;65.80;;;;;;6270130;28;20031;-80
2024/01/05 15:19:51;;;;;;;5.22;2.42;;;11.30;66.00;;;;;;6251736;28;20472;-79
2024/01/05 15:22:53;;;;;;;4.53;2.38;;;11.30;66.10;;;;;;6266663;28;20029;-79
2024/01/05 15:25:54;;;;;;;2.22;1.58;;;11.30;66.10;;;;;;6269952;28;20338;-78
2024/01/05 15:29:01;;;;;;;3.15;2.03;;;11.30;66.30;;;;;;6267455;28;20137;-79
2024/01/05 15:32:03;;;;;;;2.10;1.23;;;11.30;66.40;;;;;;6245750;28;20036;-79
2024/01/05 15:35:09;;;;;;;4.03;2.05;;;11.30;66.60;;;;;;6249032;28;20072;-78
2024/01/05 15:38:12;;;;;;;6.43;3.40;;;11.30;66.60;;;;;;6246373;28;20123;-78
2024/01/05 15:41:14;;;;;;;1.67;1.45;;;11.40;66.60;;;;;;6272642;28;20020;-78
2024/01/05 15:44:15;;;;;;;4.85;2.40;;;11.40;66.60;;;;;;6265575;28;20047;-78